Terminal Aerodrome Forecast
Issued by NWS Jackson, MS

Home | Current Version | Previous Version | Text Only | Print | Product List | Glossary On
Versions: 1 2 3 4 5 6 7 8 9 10 11 12 13 14 15
000
FTUS44 KJAN 290520
TAFGLH
TAF
KGLH 290520Z 2906/3006 08009KT P6SM SKC
     FM291600 18015G21KT P6SM SCT035
     FM300000 19009KT P6SM BKN050=

USA.gov is the U.S. government's official web portal to all federal, state and local government web resources and services.